RLU288 ULKK-ULLI
Flight info
| Callsign | RLU288 |
|---|---|
| Flight time | 1h 39m |
| Altitude | 28000 |
| Route | N0420F280 UTASA DCT ROLUG T187 REKZE P979 UNEBO T927 BLZ L259 PRIBI P979 BEPOL |
| Aircraft | CRJ1/M-J/L |
Departure
| Time | 2026-05-06 15:26 |
|---|---|
| Airport | Kotlas Airport (ULKK) |
Arrival
| Time | 2026-05-06 17:06 |
|---|---|
| Airport | Pulkovo Airport (ULLI) |
| Time | Latitude | Longitude | Altitude | Speed | Heading |
|---|---|---|---|---|---|
| 2026-05-06 15:15 | 61.23763 | 46.70035 | 213 ft | 0 kts | 225° |
| 2026-05-06 15:23 | 61.23762 | 46.70034 | 213 ft | 1 kts | 225° |
| 2026-05-06 15:23 | 61.23743 | 46.70002 | 214 ft | 5 kts | 202° |
| 2026-05-06 15:23 | 61.23703 | 46.69988 | 205 ft | 6 kts | 224° |
| 2026-05-06 15:24 | 61.23665 | 46.69900 | 200 ft | 11 kts | 228° |
| 2026-05-06 15:24 | 61.23596 | 46.69875 | 198 ft | 12 kts | 148° |
| 2026-05-06 15:24 | 61.23518 | 46.70009 | 205 ft | 17 kts | 140° |
| 2026-05-06 15:24 | 61.23413 | 46.70191 | 197 ft | 24 kts | 139° |
| 2026-05-06 15:25 | 61.23264 | 46.70458 | 195 ft | 31 kts | 139° |
| 2026-05-06 15:25 | 61.23118 | 46.70753 | 202 ft | 22 kts | 122° |
| 2026-05-06 15:25 | 61.23079 | 46.70826 | 202 ft | 3 kts | 225° |
| 2026-05-06 15:25 | 61.23084 | 46.70783 | 207 ft | 6 kts | 309° |
| 2026-05-06 15:26 | 61.23099 | 46.70754 | 201 ft | 10 kts | 319° |
| 2026-05-06 15:26 | 61.23367 | 46.70270 | 196 ft | 92 kts | 319° |
| 2026-05-06 15:26 | 61.24031 | 46.69092 | 277 ft | 146 kts | 319° |
| 2026-05-06 15:26 | 61.24824 | 46.67764 | 1041 ft | 155 kts | 317° |
| 2026-05-06 15:27 | 61.25740 | 46.66165 | 1542 ft | 186 kts | 314° |
| 2026-05-06 15:27 | 61.26338 | 46.63663 | 1938 ft | 208 kts | 278° |
| 2026-05-06 15:27 | 61.25997 | 46.60580 | 2395 ft | 232 kts | 240° |
| 2026-05-06 15:27 | 61.24802 | 46.58385 | 3527 ft | 236 kts | 208° |
| 2026-05-06 15:28 | 61.23173 | 46.57866 | 4474 ft | 248 kts | 177° |
| 2026-05-06 15:28 | 61.21538 | 46.59190 | 5363 ft | 259 kts | 151° |
| 2026-05-06 15:28 | 61.20039 | 46.61340 | 6206 ft | 264 kts | 148° |
| 2026-05-06 15:28 | 61.18569 | 46.63677 | 7001 ft | 268 kts | 146° |
| 2026-05-06 15:29 | 61.17098 | 46.66094 | 7766 ft | 270 kts | 152° |
| 2026-05-06 15:29 | 61.15394 | 46.67446 | 8497 ft | 256 kts | 183° |
| 2026-05-06 15:29 | 61.13735 | 46.66939 | 9325 ft | 237 kts | 213° |
| 2026-05-06 15:29 | 61.12502 | 46.64891 | 10113 ft | 225 kts | 232° |
| 2026-05-06 15:30 | 61.11384 | 46.62591 | 10872 ft | 228 kts | 229° |
| 2026-05-06 15:30 | 61.10151 | 46.60479 | 11644 ft | 232 kts | 224° |
| 2026-05-06 15:30 | 61.08830 | 46.58590 | 12387 ft | 235 kts | 221° |
| 2026-05-06 15:30 | 61.07437 | 46.56785 | 13139 ft | 238 kts | 220° |
| 2026-05-06 15:31 | 61.05992 | 46.55045 | 13855 ft | 242 kts | 216° |
| 2026-05-06 15:31 | 61.04445 | 46.53555 | 14502 ft | 246 kts | 214° |
| 2026-05-06 15:31 | 61.02895 | 46.52108 | 15139 ft | 248 kts | 213° |
| 2026-05-06 15:32 | 60.99695 | 46.49204 | 16397 ft | 253 kts | 213° |
| 2026-05-06 15:32 | 60.98080 | 46.47740 | 17011 ft | 256 kts | 213° |
| 2026-05-06 15:32 | 60.96439 | 46.46252 | 17642 ft | 258 kts | 213° |
| 2026-05-06 15:32 | 60.94802 | 46.44714 | 18225 ft | 256 kts | 218° |
| 2026-05-06 15:33 | 60.93665 | 46.42133 | 18682 ft | 243 kts | 252° |
| 2026-05-06 15:33 | 60.93386 | 46.38739 | 19190 ft | 244 kts | 261° |
| 2026-05-06 15:33 | 60.93113 | 46.35312 | 19698 ft | 246 kts | 257° |
| 2026-05-06 15:33 | 60.92670 | 46.31900 | 20212 ft | 248 kts | 253° |
| 2026-05-06 15:34 | 60.92105 | 46.28525 | 20713 ft | 250 kts | 251° |
| 2026-05-06 15:34 | 60.91513 | 46.25126 | 21207 ft | 252 kts | 252° |
| 2026-05-06 15:34 | 60.90932 | 46.21747 | 21690 ft | 254 kts | 252° |
| 2026-05-06 15:34 | 60.90357 | 46.18285 | 22175 ft | 256 kts | 252° |
| 2026-05-06 15:35 | 60.89787 | 46.14777 | 22638 ft | 258 kts | 252° |
| 2026-05-06 15:35 | 60.89220 | 46.11290 | 23097 ft | 260 kts | 252° |
| 2026-05-06 15:35 | 60.88637 | 46.07743 | 23523 ft | 262 kts | 252° |
| 2026-05-06 15:35 | 60.88054 | 46.04204 | 23891 ft | 264 kts | 252° |
| 2026-05-06 15:36 | 60.87458 | 46.00609 | 24267 ft | 266 kts | 252° |
| 2026-05-06 15:36 | 60.86864 | 45.97037 | 24625 ft | 267 kts | 252° |
| 2026-05-06 15:36 | 60.86264 | 45.93431 | 24983 ft | 269 kts | 252° |
| 2026-05-06 15:36 | 60.85654 | 45.89771 | 25333 ft | 271 kts | 252° |
| 2026-05-06 15:37 | 60.85041 | 45.86092 | 25678 ft | 273 kts | 252° |
| 2026-05-06 15:37 | 60.84426 | 45.82417 | 26026 ft | 274 kts | 252° |
| 2026-05-06 15:37 | 60.83809 | 45.78733 | 26359 ft | 276 kts | 252° |
| 2026-05-06 15:37 | 60.83181 | 45.74992 | 26678 ft | 277 kts | 252° |
| 2026-05-06 15:38 | 60.82553 | 45.71265 | 26994 ft | 279 kts | 252° |
| 2026-05-06 15:38 | 60.81917 | 45.67490 | 27306 ft | 281 kts | 252° |
| 2026-05-06 15:38 | 60.81271 | 45.63663 | 27588 ft | 283 kts | 252° |
| 2026-05-06 15:38 | 60.80623 | 45.59831 | 27717 ft | 290 kts | 252° |
| 2026-05-06 15:39 | 60.79948 | 45.55854 | 27776 ft | 299 kts | 252° |
| 2026-05-06 15:39 | 60.79262 | 45.51817 | 27802 ft | 305 kts | 252° |
| 2026-05-06 15:39 | 60.78553 | 45.47666 | 27816 ft | 310 kts | 252° |
| 2026-05-06 15:39 | 60.77834 | 45.43457 | 27810 ft | 314 kts | 252° |
| 2026-05-06 15:40 | 60.77112 | 45.39232 | 27815 ft | 318 kts | 252° |
| 2026-05-06 15:40 | 60.76379 | 45.34963 | 27813 ft | 323 kts | 252° |
| 2026-05-06 15:40 | 60.75629 | 45.30602 | 27811 ft | 327 kts | 252° |
| 2026-05-06 15:40 | 60.74863 | 45.26161 | 27816 ft | 331 kts | 252° |
| 2026-05-06 15:41 | 60.74096 | 45.21729 | 27827 ft | 334 kts | 252° |
| 2026-05-06 15:41 | 60.73312 | 45.17201 | 27810 ft | 338 kts | 252° |
| 2026-05-06 15:41 | 60.72448 | 45.12744 | 27811 ft | 343 kts | 245° |
| 2026-05-06 15:41 | 60.71213 | 45.08516 | 27817 ft | 347 kts | 241° |
| 2026-05-06 15:42 | 60.69850 | 45.04451 | 27817 ft | 352 kts | 237° |
| 2026-05-06 15:42 | 60.68324 | 45.00479 | 27823 ft | 356 kts | 235° |
| 2026-05-06 15:42 | 60.66728 | 44.96563 | 27813 ft | 360 kts | 234° |
| 2026-05-06 15:42 | 60.65131 | 44.92669 | 27812 ft | 362 kts | 234° |
| 2026-05-06 15:43 | 60.63508 | 44.88678 | 27821 ft | 365 kts | 235° |
| 2026-05-06 15:43 | 60.61913 | 44.84673 | 27819 ft | 367 kts | 236° |
| 2026-05-06 15:43 | 60.60294 | 44.80597 | 27817 ft | 370 kts | 235° |
| 2026-05-06 15:43 | 60.58688 | 44.76555 | 27820 ft | 372 kts | 235° |
| 2026-05-06 15:44 | 60.57045 | 44.72434 | 27819 ft | 374 kts | 235° |
| 2026-05-06 15:44 | 60.55402 | 44.68311 | 27816 ft | 376 kts | 236° |
| 2026-05-06 15:44 | 60.53745 | 44.64166 | 27824 ft | 378 kts | 235° |
| 2026-05-06 15:44 | 60.52103 | 44.60067 | 27818 ft | 380 kts | 235° |
| 2026-05-06 15:45 | 60.50426 | 44.55889 | 27822 ft | 381 kts | 235° |
| 2026-05-06 15:45 | 60.48740 | 44.51692 | 27818 ft | 382 kts | 236° |
| 2026-05-06 15:45 | 60.47072 | 44.47548 | 27821 ft | 383 kts | 235° |
| 2026-05-06 15:45 | 60.45381 | 44.43355 | 27818 ft | 383 kts | 236° |
| 2026-05-06 15:46 | 60.43705 | 44.39207 | 27822 ft | 384 kts | 236° |
| 2026-05-06 15:46 | 60.42009 | 44.35014 | 27826 ft | 384 kts | 236° |
| 2026-05-06 15:46 | 60.40308 | 44.30822 | 27828 ft | 385 kts | 236° |
| 2026-05-06 15:46 | 60.38597 | 44.26613 | 27829 ft | 385 kts | 236° |
| 2026-05-06 15:47 | 60.36908 | 44.22461 | 27827 ft | 386 kts | 236° |
| 2026-05-06 15:47 | 60.35191 | 44.18255 | 27828 ft | 386 kts | 236° |
| 2026-05-06 15:47 | 60.33496 | 44.14100 | 27829 ft | 387 kts | 236° |
| 2026-05-06 15:47 | 60.32062 | 44.09576 | 27825 ft | 378 kts | 251° |
| 2026-05-06 15:48 | 60.31223 | 44.04544 | 27836 ft | 377 kts | 255° |
| 2026-05-06 15:48 | 60.30470 | 43.99533 | 27840 ft | 377 kts | 256° |
| 2026-05-06 15:48 | 60.29804 | 43.94409 | 27841 ft | 376 kts | 261° |
| 2026-05-06 15:48 | 60.29483 | 43.89223 | 27843 ft | 375 kts | 266° |
| 2026-05-06 15:49 | 60.29336 | 43.83940 | 27843 ft | 375 kts | 268° |
| 2026-05-06 15:49 | 60.29210 | 43.78714 | 27841 ft | 376 kts | 267° |
| 2026-05-06 15:49 | 60.29040 | 43.73444 | 27839 ft | 376 kts | 266° |
| 2026-05-06 15:49 | 60.28824 | 43.68206 | 27840 ft | 376 kts | 266° |
| 2026-05-06 15:50 | 60.28603 | 43.62944 | 27840 ft | 376 kts | 266° |
| 2026-05-06 15:50 | 60.28379 | 43.57641 | 27845 ft | 376 kts | 266° |
| 2026-05-06 15:50 | 60.28157 | 43.52426 | 27846 ft | 376 kts | 266° |
| 2026-05-06 15:50 | 60.27932 | 43.47193 | 27843 ft | 376 kts | 266° |
| 2026-05-06 15:51 | 60.27703 | 43.41939 | 27849 ft | 376 kts | 266° |
| 2026-05-06 15:51 | 60.27474 | 43.36709 | 27842 ft | 376 kts | 266° |
| 2026-05-06 15:51 | 60.27240 | 43.31406 | 27844 ft | 376 kts | 266° |
| 2026-05-06 15:51 | 60.27007 | 43.26234 | 27844 ft | 376 kts | 266° |
| 2026-05-06 15:52 | 60.26771 | 43.20990 | 27852 ft | 376 kts | 266° |
| 2026-05-06 15:52 | 60.26532 | 43.15719 | 27851 ft | 376 kts | 266° |
| 2026-05-06 15:52 | 60.26290 | 43.10493 | 27850 ft | 375 kts | 266° |
| 2026-05-06 15:52 | 60.26046 | 43.05230 | 27853 ft | 375 kts | 266° |
| 2026-05-06 15:53 | 60.25804 | 43.00054 | 27857 ft | 375 kts | 266° |
| 2026-05-06 15:53 | 60.25560 | 42.94853 | 27861 ft | 375 kts | 266° |
| 2026-05-06 15:53 | 60.25311 | 42.89622 | 27857 ft | 374 kts | 266° |
| 2026-05-06 15:53 | 60.25061 | 42.84386 | 27857 ft | 374 kts | 266° |
| 2026-05-06 15:54 | 60.24809 | 42.79144 | 27860 ft | 373 kts | 266° |
| 2026-05-06 15:54 | 60.24559 | 42.74025 | 27859 ft | 373 kts | 266° |
| 2026-05-06 15:54 | 60.24302 | 42.68814 | 27862 ft | 373 kts | 266° |
| 2026-05-06 15:54 | 60.24046 | 42.63598 | 27866 ft | 372 kts | 266° |
| 2026-05-06 15:55 | 60.23785 | 42.58442 | 27864 ft | 372 kts | 267° |
| 2026-05-06 15:55 | 60.23527 | 42.53270 | 27861 ft | 371 kts | 267° |
| 2026-05-06 15:55 | 60.23266 | 42.48135 | 27862 ft | 371 kts | 267° |
| 2026-05-06 15:55 | 60.23003 | 42.42967 | 27865 ft | 370 kts | 267° |
| 2026-05-06 15:56 | 60.22738 | 42.37814 | 27864 ft | 370 kts | 266° |
| 2026-05-06 15:56 | 60.22470 | 42.32669 | 27870 ft | 369 kts | 267° |
| 2026-05-06 15:56 | 60.22202 | 42.27550 | 27866 ft | 369 kts | 267° |
| 2026-05-06 15:56 | 60.21934 | 42.22473 | 27866 ft | 368 kts | 266° |
| 2026-05-06 15:57 | 60.21664 | 42.17353 | 27869 ft | 367 kts | 266° |
| 2026-05-06 15:57 | 60.21391 | 42.12217 | 27875 ft | 367 kts | 266° |
| 2026-05-06 15:57 | 60.21116 | 42.07146 | 27872 ft | 367 kts | 267° |
| 2026-05-06 15:57 | 60.20842 | 42.02070 | 27873 ft | 366 kts | 267° |
| 2026-05-06 15:58 | 60.20656 | 41.98675 | 27875 ft | 366 kts | 266° |
| 2026-05-06 15:58 | 60.20286 | 41.91913 | 27873 ft | 365 kts | 266° |
| 2026-05-06 15:58 | 60.20097 | 41.88506 | 27876 ft | 365 kts | 266° |
| 2026-05-06 15:58 | 60.19818 | 41.83481 | 27878 ft | 364 kts | 266° |
| 2026-05-06 15:59 | 60.19531 | 41.78374 | 27881 ft | 364 kts | 266° |
| 2026-05-06 15:59 | 60.19248 | 41.73341 | 27882 ft | 363 kts | 266° |
| 2026-05-06 15:59 | 60.18959 | 41.68282 | 27882 ft | 363 kts | 266° |
| 2026-05-06 15:59 | 60.18674 | 41.63290 | 27887 ft | 363 kts | 266° |
| 2026-05-06 16:00 | 60.18383 | 41.58244 | 27886 ft | 362 kts | 266° |
| 2026-05-06 16:00 | 60.18091 | 41.53204 | 27892 ft | 362 kts | 266° |
| 2026-05-06 16:00 | 60.17804 | 41.48253 | 27889 ft | 361 kts | 266° |
| 2026-05-06 16:00 | 60.17511 | 41.43265 | 27893 ft | 360 kts | 266° |
| 2026-05-06 16:01 | 60.17216 | 41.38233 | 27892 ft | 359 kts | 267° |
| 2026-05-06 16:01 | 60.16975 | 41.33263 | 27895 ft | 358 kts | 268° |
| 2026-05-06 16:01 | 60.16809 | 41.28308 | 27895 ft | 357 kts | 269° |
| 2026-05-06 16:01 | 60.16667 | 41.23307 | 27893 ft | 356 kts | 269° |
| 2026-05-06 16:02 | 60.16521 | 41.18398 | 27896 ft | 355 kts | 269° |
| 2026-05-06 16:02 | 60.16371 | 41.13448 | 27901 ft | 355 kts | 269° |
| 2026-05-06 16:02 | 60.16218 | 41.08504 | 27902 ft | 354 kts | 269° |
| 2026-05-06 16:02 | 60.16065 | 41.03643 | 27901 ft | 354 kts | 269° |
| 2026-05-06 16:03 | 60.15909 | 40.98712 | 27907 ft | 354 kts | 269° |
| 2026-05-06 16:03 | 60.15754 | 40.93853 | 27909 ft | 353 kts | 269° |
| 2026-05-06 16:03 | 60.15593 | 40.88880 | 27906 ft | 353 kts | 269° |
| 2026-05-06 16:03 | 60.15434 | 40.84032 | 27904 ft | 353 kts | 269° |
| 2026-05-06 16:04 | 60.15272 | 40.79119 | 27909 ft | 352 kts | 269° |
| 2026-05-06 16:04 | 60.15163 | 40.75857 | 27907 ft | 352 kts | 269° |
| 2026-05-06 16:04 | 60.15008 | 40.71209 | 27906 ft | 351 kts | 269° |
| 2026-05-06 16:04 | 60.14848 | 40.66373 | 27911 ft | 350 kts | 269° |
| 2026-05-06 16:05 | 60.14680 | 40.61479 | 27910 ft | 349 kts | 269° |
| 2026-05-06 16:05 | 60.14510 | 40.56669 | 27913 ft | 348 kts | 268° |
| 2026-05-06 16:05 | 60.14338 | 40.51866 | 27917 ft | 347 kts | 268° |
| 2026-05-06 16:05 | 60.14167 | 40.47030 | 27923 ft | 346 kts | 268° |
| 2026-05-06 16:06 | 60.13993 | 40.42194 | 27914 ft | 346 kts | 268° |
| 2026-05-06 16:06 | 60.13821 | 40.37427 | 27920 ft | 345 kts | 268° |
| 2026-05-06 16:06 | 60.13645 | 40.32597 | 27919 ft | 345 kts | 268° |
| 2026-05-06 16:06 | 60.13470 | 40.27837 | 27922 ft | 345 kts | 268° |
| 2026-05-06 16:07 | 60.13291 | 40.23031 | 27922 ft | 344 kts | 268° |
| 2026-05-06 16:07 | 60.13110 | 40.18230 | 27922 ft | 344 kts | 268° |
| 2026-05-06 16:07 | 60.12929 | 40.13487 | 27921 ft | 344 kts | 268° |
| 2026-05-06 16:07 | 60.12747 | 40.08710 | 27921 ft | 343 kts | 268° |
| 2026-05-06 16:08 | 60.12560 | 40.03897 | 27924 ft | 343 kts | 268° |
| 2026-05-06 16:08 | 60.12376 | 39.99182 | 27922 ft | 343 kts | 268° |
| 2026-05-06 16:08 | 60.12187 | 39.94403 | 27922 ft | 343 kts | 268° |
| 2026-05-06 16:08 | 60.11999 | 39.89679 | 27924 ft | 342 kts | 268° |
| 2026-05-06 16:09 | 60.11806 | 39.84894 | 27928 ft | 342 kts | 268° |
| 2026-05-06 16:09 | 60.11615 | 39.80175 | 27924 ft | 342 kts | 268° |
| 2026-05-06 16:09 | 60.11420 | 39.75400 | 27923 ft | 342 kts | 267° |
| 2026-05-06 16:09 | 60.11223 | 39.70622 | 27921 ft | 342 kts | 267° |
| 2026-05-06 16:10 | 60.11028 | 39.65926 | 27929 ft | 342 kts | 267° |
| 2026-05-06 16:10 | 60.10828 | 39.61164 | 27926 ft | 342 kts | 267° |
| 2026-05-06 16:10 | 60.10624 | 39.56383 | 27926 ft | 342 kts | 267° |
| 2026-05-06 16:10 | 60.10519 | 39.53905 | 27928 ft | 343 kts | 267° |
| 2026-05-06 16:11 | 60.10314 | 39.49112 | 27930 ft | 344 kts | 267° |
| 2026-05-06 16:11 | 60.10108 | 39.44323 | 27930 ft | 345 kts | 267° |
| 2026-05-06 16:11 | 60.09898 | 39.39526 | 27933 ft | 346 kts | 267° |
| 2026-05-06 16:11 | 60.09690 | 39.34783 | 27935 ft | 346 kts | 267° |
| 2026-05-06 16:12 | 60.09475 | 39.29955 | 27933 ft | 347 kts | 266° |
| 2026-05-06 16:12 | 60.09259 | 39.25133 | 27930 ft | 348 kts | 266° |
| 2026-05-06 16:12 | 60.09041 | 39.20293 | 27931 ft | 348 kts | 266° |
| 2026-05-06 16:12 | 60.08822 | 39.15448 | 27933 ft | 349 kts | 266° |
| 2026-05-06 16:13 | 60.08603 | 39.10671 | 27932 ft | 349 kts | 266° |
| 2026-05-06 16:13 | 60.08377 | 39.05794 | 27933 ft | 350 kts | 266° |
| 2026-05-06 16:13 | 60.08148 | 39.00921 | 27934 ft | 350 kts | 266° |
| 2026-05-06 16:13 | 60.07922 | 38.96082 | 27935 ft | 351 kts | 266° |
| 2026-05-06 16:14 | 60.07694 | 38.91257 | 27932 ft | 351 kts | 266° |
| 2026-05-06 16:14 | 60.07462 | 38.86373 | 27933 ft | 352 kts | 266° |
| 2026-05-06 16:14 | 60.07225 | 38.81474 | 27933 ft | 352 kts | 266° |
| 2026-05-06 16:14 | 60.06991 | 38.76643 | 27936 ft | 352 kts | 266° |
| 2026-05-06 16:15 | 60.06751 | 38.71746 | 27933 ft | 353 kts | 266° |
| 2026-05-06 16:15 | 60.06510 | 38.66815 | 27935 ft | 353 kts | 265° |
| 2026-05-06 16:15 | 60.06270 | 38.61979 | 27930 ft | 353 kts | 265° |
| 2026-05-06 16:15 | 60.06026 | 38.57075 | 27929 ft | 353 kts | 265° |
| 2026-05-06 16:16 | 60.05777 | 38.52153 | 27931 ft | 354 kts | 265° |
| 2026-05-06 16:16 | 60.05530 | 38.47288 | 27932 ft | 354 kts | 265° |
| 2026-05-06 16:16 | 60.05279 | 38.42371 | 27934 ft | 354 kts | 265° |
| 2026-05-06 16:16 | 60.05029 | 38.37515 | 27935 ft | 354 kts | 265° |
| 2026-05-06 16:17 | 60.04772 | 38.32563 | 27936 ft | 355 kts | 265° |
| 2026-05-06 16:17 | 60.04517 | 38.27702 | 27935 ft | 355 kts | 265° |
| 2026-05-06 16:17 | 60.04257 | 38.22745 | 27929 ft | 355 kts | 265° |
| 2026-05-06 16:17 | 60.04000 | 38.17872 | 27932 ft | 355 kts | 265° |
| 2026-05-06 16:18 | 60.03737 | 38.12937 | 27929 ft | 356 kts | 265° |
| 2026-05-06 16:18 | 60.03471 | 38.08010 | 27930 ft | 356 kts | 265° |
| 2026-05-06 16:18 | 60.03206 | 38.03130 | 27929 ft | 356 kts | 264° |
| 2026-05-06 16:18 | 60.02937 | 37.98177 | 27933 ft | 356 kts | 264° |
| 2026-05-06 16:19 | 60.02666 | 37.93242 | 27931 ft | 357 kts | 264° |
| 2026-05-06 16:19 | 60.02393 | 37.88299 | 27933 ft | 357 kts | 264° |
| 2026-05-06 16:19 | 60.02120 | 37.83392 | 27932 ft | 357 kts | 264° |
| 2026-05-06 16:19 | 60.01845 | 37.78481 | 27935 ft | 357 kts | 264° |
| 2026-05-06 16:20 | 60.01779 | 37.73497 | 27937 ft | 358 kts | 271° |
| 2026-05-06 16:20 | 60.01988 | 37.68569 | 27934 ft | 359 kts | 275° |
| 2026-05-06 16:20 | 60.02316 | 37.63594 | 27938 ft | 359 kts | 276° |
| 2026-05-06 16:20 | 60.02652 | 37.58627 | 27938 ft | 359 kts | 275° |
| 2026-05-06 16:21 | 60.02948 | 37.53698 | 27935 ft | 359 kts | 274° |
| 2026-05-06 16:21 | 60.03219 | 37.48705 | 27937 ft | 360 kts | 274° |
| 2026-05-06 16:21 | 60.03479 | 37.43784 | 27935 ft | 360 kts | 274° |
| 2026-05-06 16:21 | 60.03739 | 37.38799 | 27940 ft | 360 kts | 274° |
| 2026-05-06 16:22 | 60.03997 | 37.33798 | 27939 ft | 360 kts | 274° |
| 2026-05-06 16:22 | 60.04252 | 37.28787 | 27945 ft | 361 kts | 274° |
| 2026-05-06 16:22 | 60.04503 | 37.23856 | 27944 ft | 361 kts | 274° |
| 2026-05-06 16:22 | 60.04757 | 37.18832 | 27946 ft | 361 kts | 274° |
| 2026-05-06 16:23 | 60.05009 | 37.13809 | 27949 ft | 361 kts | 274° |
| 2026-05-06 16:23 | 60.05256 | 37.08845 | 27945 ft | 361 kts | 274° |
| 2026-05-06 16:23 | 60.05501 | 37.03862 | 27952 ft | 362 kts | 274° |
| 2026-05-06 16:23 | 60.05754 | 36.98831 | 27954 ft | 362 kts | 274° |
| 2026-05-06 16:24 | 60.05994 | 36.93791 | 27954 ft | 362 kts | 273° |
| 2026-05-06 16:24 | 60.06221 | 36.88807 | 27956 ft | 363 kts | 273° |
| 2026-05-06 16:24 | 60.06463 | 36.83746 | 27958 ft | 363 kts | 273° |
| 2026-05-06 16:24 | 60.06700 | 36.78759 | 27955 ft | 363 kts | 273° |
| 2026-05-06 16:25 | 60.06934 | 36.73706 | 27957 ft | 363 kts | 273° |
| 2026-05-06 16:25 | 60.07173 | 36.68694 | 27958 ft | 364 kts | 273° |
| 2026-05-06 16:25 | 60.07408 | 36.63632 | 27958 ft | 364 kts | 273° |
| 2026-05-06 16:25 | 60.07638 | 36.58617 | 27964 ft | 364 kts | 273° |
| 2026-05-06 16:26 | 60.07869 | 36.53541 | 27964 ft | 364 kts | 273° |
| 2026-05-06 16:26 | 60.08094 | 36.48511 | 27962 ft | 365 kts | 273° |
| 2026-05-06 16:26 | 60.08321 | 36.43427 | 27970 ft | 365 kts | 272° |
| 2026-05-06 16:26 | 60.08545 | 36.38377 | 27967 ft | 365 kts | 272° |
| 2026-05-06 16:27 | 60.08768 | 36.33283 | 27969 ft | 366 kts | 272° |
| 2026-05-06 16:27 | 60.08987 | 36.28185 | 27974 ft | 366 kts | 272° |
| 2026-05-06 16:27 | 60.09204 | 36.23167 | 27972 ft | 366 kts | 272° |
| 2026-05-06 16:27 | 60.09421 | 36.18060 | 27971 ft | 366 kts | 272° |
| 2026-05-06 16:28 | 60.09637 | 36.12950 | 27972 ft | 367 kts | 272° |
| 2026-05-06 16:28 | 60.09850 | 36.07915 | 27975 ft | 367 kts | 272° |
| 2026-05-06 16:28 | 60.10070 | 36.02809 | 27979 ft | 367 kts | 272° |
| 2026-05-06 16:28 | 60.10260 | 35.97690 | 27979 ft | 367 kts | 272° |
| 2026-05-06 16:29 | 60.10458 | 35.92635 | 27983 ft | 368 kts | 272° |
| 2026-05-06 16:29 | 60.10667 | 35.87495 | 27981 ft | 368 kts | 272° |
| 2026-05-06 16:29 | 60.10869 | 35.82419 | 27988 ft | 368 kts | 272° |
| 2026-05-06 16:29 | 60.11078 | 35.77276 | 27983 ft | 369 kts | 272° |
| 2026-05-06 16:30 | 60.11278 | 35.72190 | 27981 ft | 369 kts | 272° |
| 2026-05-06 16:30 | 60.11412 | 35.68722 | 27981 ft | 369 kts | 272° |
| 2026-05-06 16:30 | 60.11674 | 35.61911 | 27987 ft | 369 kts | 272° |
| 2026-05-06 16:30 | 60.11865 | 35.56808 | 27985 ft | 370 kts | 272° |
| 2026-05-06 16:31 | 60.12059 | 35.51655 | 27986 ft | 370 kts | 272° |
| 2026-05-06 16:31 | 60.12251 | 35.46469 | 27989 ft | 370 kts | 272° |
| 2026-05-06 16:31 | 60.12436 | 35.41365 | 27992 ft | 370 kts | 272° |
| 2026-05-06 16:31 | 60.12624 | 35.36211 | 27992 ft | 371 kts | 272° |
| 2026-05-06 16:32 | 60.12812 | 35.31025 | 27991 ft | 371 kts | 272° |
| 2026-05-06 16:32 | 60.13002 | 35.25904 | 27990 ft | 371 kts | 272° |
| 2026-05-06 16:32 | 60.13176 | 35.20715 | 27991 ft | 371 kts | 271° |
| 2026-05-06 16:32 | 60.13339 | 35.15592 | 27991 ft | 371 kts | 271° |
| 2026-05-06 16:33 | 60.13517 | 35.10391 | 27993 ft | 372 kts | 272° |
| 2026-05-06 16:33 | 60.13696 | 35.05205 | 27992 ft | 372 kts | 271° |
| 2026-05-06 16:33 | 60.13869 | 35.00089 | 27989 ft | 372 kts | 271° |
| 2026-05-06 16:34 | 60.14218 | 34.89678 | 27994 ft | 372 kts | 271° |
| 2026-05-06 16:34 | 60.14386 | 34.84544 | 27989 ft | 372 kts | 271° |
| 2026-05-06 16:34 | 60.14554 | 34.79321 | 27997 ft | 373 kts | 271° |
| 2026-05-06 16:35 | 60.14880 | 34.68923 | 27996 ft | 373 kts | 271° |
| 2026-05-06 16:35 | 60.15038 | 34.63762 | 27995 ft | 373 kts | 271° |
| 2026-05-06 16:35 | 60.15197 | 34.58541 | 27995 ft | 373 kts | 271° |
| 2026-05-06 16:35 | 60.15354 | 34.53332 | 27996 ft | 374 kts | 271° |
| 2026-05-06 16:36 | 60.15506 | 34.48183 | 28007 ft | 374 kts | 271° |
| 2026-05-06 16:36 | 60.15809 | 34.37719 | 28007 ft | 374 kts | 271° |
| 2026-05-06 16:37 | 60.16104 | 34.27278 | 27997 ft | 374 kts | 271° |
| 2026-05-06 16:37 | 60.16390 | 34.16879 | 28006 ft | 375 kts | 271° |
| 2026-05-06 16:38 | 60.16616 | 34.08434 | 28003 ft | 375 kts | 271° |
| 2026-05-06 16:38 | 60.16887 | 33.97995 | 28003 ft | 375 kts | 271° |
| 2026-05-06 16:38 | 60.17018 | 33.92832 | 28000 ft | 374 kts | 270° |
| 2026-05-06 16:39 | 60.17149 | 33.87602 | 28005 ft | 373 kts | 270° |
| 2026-05-06 16:39 | 60.17404 | 33.77172 | 27859 ft | 375 kts | 270° |
| 2026-05-06 16:39 | 60.17526 | 33.72019 | 27441 ft | 368 kts | 270° |
| 2026-05-06 16:40 | 60.17647 | 33.66918 | 27024 ft | 361 kts | 270° |
| 2026-05-06 16:40 | 60.17762 | 33.61889 | 26607 ft | 356 kts | 270° |
| 2026-05-06 16:40 | 60.17874 | 33.56994 | 26209 ft | 352 kts | 270° |
| 2026-05-06 16:40 | 60.17981 | 33.52139 | 25821 ft | 347 kts | 270° |
| 2026-05-06 16:41 | 60.18089 | 33.47299 | 25416 ft | 344 kts | 270° |
| 2026-05-06 16:41 | 60.18193 | 33.42495 | 25025 ft | 341 kts | 270° |
| 2026-05-06 16:41 | 60.18290 | 33.37802 | 24644 ft | 338 kts | 270° |
| 2026-05-06 16:41 | 60.18390 | 33.33080 | 24265 ft | 336 kts | 270° |
| 2026-05-06 16:42 | 60.18485 | 33.28447 | 23896 ft | 334 kts | 270° |
| 2026-05-06 16:42 | 60.18579 | 33.23783 | 23514 ft | 332 kts | 270° |
| 2026-05-06 16:42 | 60.18626 | 33.19153 | 23069 ft | 330 kts | 265° |
| 2026-05-06 16:42 | 60.18302 | 33.14583 | 22635 ft | 328 kts | 259° |
| 2026-05-06 16:43 | 60.17836 | 33.10132 | 22208 ft | 327 kts | 257° |
| 2026-05-06 16:43 | 60.17247 | 33.05709 | 21799 ft | 326 kts | 255° |
| 2026-05-06 16:43 | 60.16609 | 33.01400 | 21381 ft | 326 kts | 254° |
| 2026-05-06 16:43 | 60.15954 | 32.97039 | 20965 ft | 325 kts | 254° |
| 2026-05-06 16:44 | 60.15299 | 32.92686 | 20568 ft | 325 kts | 254° |
| 2026-05-06 16:44 | 60.14658 | 32.88331 | 20166 ft | 324 kts | 255° |
| 2026-05-06 16:44 | 60.14029 | 32.83981 | 19771 ft | 324 kts | 255° |
| 2026-05-06 16:44 | 60.13411 | 32.79698 | 19382 ft | 324 kts | 255° |
| 2026-05-06 16:45 | 60.12786 | 32.75361 | 19008 ft | 324 kts | 255° |
| 2026-05-06 16:45 | 60.12154 | 32.71005 | 18623 ft | 323 kts | 255° |
| 2026-05-06 16:45 | 60.11526 | 32.66676 | 18287 ft | 322 kts | 254° |
| 2026-05-06 16:45 | 60.10908 | 32.62407 | 17912 ft | 321 kts | 254° |
| 2026-05-06 16:46 | 60.10278 | 32.58102 | 17527 ft | 320 kts | 254° |
| 2026-05-06 16:46 | 60.09650 | 32.53808 | 17158 ft | 320 kts | 254° |
| 2026-05-06 16:46 | 60.09029 | 32.49568 | 16786 ft | 319 kts | 254° |
| 2026-05-06 16:46 | 60.08398 | 32.45285 | 16423 ft | 319 kts | 254° |
| 2026-05-06 16:47 | 60.07778 | 32.41055 | 16063 ft | 318 kts | 254° |
| 2026-05-06 16:47 | 60.07147 | 32.36790 | 15715 ft | 318 kts | 254° |
| 2026-05-06 16:47 | 60.06517 | 32.32563 | 15368 ft | 318 kts | 254° |
| 2026-05-06 16:47 | 60.05882 | 32.28314 | 15020 ft | 318 kts | 253° |
| 2026-05-06 16:48 | 60.05215 | 32.24075 | 14669 ft | 318 kts | 252° |
| 2026-05-06 16:48 | 60.04521 | 32.19921 | 14337 ft | 317 kts | 252° |
| 2026-05-06 16:48 | 60.03810 | 32.15733 | 14007 ft | 317 kts | 252° |
| 2026-05-06 16:48 | 60.03106 | 32.11582 | 13654 ft | 317 kts | 252° |
| 2026-05-06 16:49 | 60.02394 | 32.07407 | 13280 ft | 316 kts | 251° |
| 2026-05-06 16:49 | 60.01679 | 32.03220 | 12900 ft | 316 kts | 251° |
| 2026-05-06 16:49 | 60.00971 | 31.99095 | 12524 ft | 315 kts | 251° |
| 2026-05-06 16:49 | 60.00262 | 31.94966 | 12165 ft | 314 kts | 251° |
| 2026-05-06 16:50 | 59.99558 | 31.90879 | 11806 ft | 313 kts | 251° |
| 2026-05-06 16:50 | 59.98846 | 31.86751 | 11439 ft | 312 kts | 251° |
| 2026-05-06 16:50 | 59.98137 | 31.82660 | 11100 ft | 311 kts | 250° |
| 2026-05-06 16:50 | 59.97666 | 31.79952 | 10865 ft | 310 kts | 250° |
| 2026-05-06 16:51 | 59.96745 | 31.74655 | 10394 ft | 295 kts | 250° |
| 2026-05-06 16:51 | 59.96084 | 31.70860 | 10043 ft | 280 kts | 250° |
| 2026-05-06 16:51 | 59.95478 | 31.67360 | 9657 ft | 261 kts | 249° |
| 2026-05-06 16:51 | 59.94890 | 31.64039 | 9277 ft | 247 kts | 249° |
| 2026-05-06 16:52 | 59.94331 | 31.60878 | 9061 ft | 240 kts | 249° |
| 2026-05-06 16:52 | 59.93783 | 31.57767 | 8837 ft | 234 kts | 249° |
| 2026-05-06 16:52 | 59.93244 | 31.54770 | 8625 ft | 228 kts | 249° |
| 2026-05-06 16:52 | 59.92712 | 31.51812 | 8416 ft | 224 kts | 249° |
| 2026-05-06 16:53 | 59.92197 | 31.48902 | 8189 ft | 220 kts | 249° |
| 2026-05-06 16:53 | 59.91694 | 31.46045 | 7973 ft | 216 kts | 249° |
| 2026-05-06 16:53 | 59.91200 | 31.43252 | 7762 ft | 216 kts | 249° |
| 2026-05-06 16:53 | 59.90697 | 31.40411 | 7548 ft | 217 kts | 249° |
| 2026-05-06 16:54 | 59.90201 | 31.37604 | 7359 ft | 217 kts | 249° |
| 2026-05-06 16:54 | 59.89695 | 31.34753 | 7150 ft | 218 kts | 249° |
| 2026-05-06 16:54 | 59.89187 | 31.31902 | 6965 ft | 218 kts | 249° |
| 2026-05-06 16:54 | 59.88684 | 31.29082 | 6772 ft | 218 kts | 249° |
| 2026-05-06 16:55 | 59.88173 | 31.26235 | 6579 ft | 218 kts | 249° |
| 2026-05-06 16:55 | 59.87664 | 31.23389 | 6388 ft | 217 kts | 249° |
| 2026-05-06 16:55 | 59.87161 | 31.20586 | 6186 ft | 217 kts | 249° |
| 2026-05-06 16:55 | 59.86650 | 31.17752 | 5979 ft | 216 kts | 249° |
| 2026-05-06 16:56 | 59.86160 | 31.14955 | 5770 ft | 215 kts | 250° |
| 2026-05-06 16:56 | 59.85694 | 31.12120 | 5580 ft | 215 kts | 251° |
| 2026-05-06 16:56 | 59.85254 | 31.09274 | 5416 ft | 218 kts | 251° |
| 2026-05-06 16:56 | 59.84808 | 31.06366 | 5242 ft | 220 kts | 251° |
| 2026-05-06 16:57 | 59.84357 | 31.03435 | 5046 ft | 221 kts | 251° |
| 2026-05-06 16:57 | 59.83904 | 31.00501 | 4850 ft | 222 kts | 252° |
| 2026-05-06 16:57 | 59.83461 | 30.97625 | 4662 ft | 222 kts | 252° |
| 2026-05-06 16:57 | 59.83008 | 30.94681 | 4460 ft | 222 kts | 252° |
| 2026-05-06 16:58 | 59.82552 | 30.91737 | 4242 ft | 222 kts | 252° |
| 2026-05-06 16:58 | 59.82098 | 30.88809 | 4053 ft | 221 kts | 253° |
| 2026-05-06 16:58 | 59.81650 | 30.85929 | 3899 ft | 220 kts | 253° |
| 2026-05-06 16:58 | 59.81198 | 30.83024 | 3736 ft | 219 kts | 253° |
| 2026-05-06 16:59 | 59.80753 | 30.80162 | 3610 ft | 216 kts | 253° |
| 2026-05-06 16:59 | 59.80309 | 30.77344 | 3540 ft | 210 kts | 253° |
| 2026-05-06 16:59 | 59.79793 | 30.74620 | 3386 ft | 211 kts | 248° |
| 2026-05-06 16:59 | 59.79170 | 30.71997 | 3196 ft | 213 kts | 246° |
| 2026-05-06 17:00 | 59.78718 | 30.70241 | 3080 ft | 214 kts | 245° |
| 2026-05-06 17:00 | 59.77802 | 30.66745 | 2832 ft | 215 kts | 246° |
| 2026-05-06 17:00 | 59.77126 | 30.64095 | 2672 ft | 214 kts | 247° |
| 2026-05-06 17:00 | 59.76691 | 30.62344 | 2612 ft | 212 kts | 248° |
| 2026-05-06 17:01 | 59.76074 | 30.59721 | 2555 ft | 206 kts | 253° |
| 2026-05-06 17:01 | 59.76006 | 30.57005 | 2519 ft | 194 kts | 289° |
| 2026-05-06 17:01 | 59.76814 | 30.55035 | 2512 ft | 187 kts | 323° |
| 2026-05-06 17:01 | 59.77818 | 30.53580 | 2602 ft | 162 kts | 306° |
| 2026-05-06 17:02 | 59.78247 | 30.51628 | 2454 ft | 158 kts | 276° |
| 2026-05-06 17:02 | 59.78100 | 30.49488 | 2252 ft | 148 kts | 257° |
| 2026-05-06 17:02 | 59.77832 | 30.47651 | 2014 ft | 137 kts | 259° |
| 2026-05-06 17:02 | 59.77782 | 30.45944 | 1841 ft | 114 kts | 278° |
| 2026-05-06 17:03 | 59.77958 | 30.44475 | 1620 ft | 104 kts | 294° |
| 2026-05-06 17:03 | 59.78300 | 30.43337 | 1368 ft | 98 kts | 282° |
| 2026-05-06 17:03 | 59.78404 | 30.41981 | 1173 ft | 103 kts | 281° |
| 2026-05-06 17:03 | 59.78593 | 30.40501 | 1147 ft | 117 kts | 285° |
| 2026-05-06 17:04 | 59.78794 | 30.38955 | 1132 ft | 114 kts | 286° |
| 2026-05-06 17:04 | 59.79051 | 30.37474 | 929 ft | 114 kts | 289° |
| 2026-05-06 17:04 | 59.79250 | 30.35946 | 621 ft | 117 kts | 285° |
| 2026-05-06 17:04 | 59.79485 | 30.34329 | 508 ft | 124 kts | 288° |
| 2026-05-06 17:05 | 59.79754 | 30.32678 | 355 ft | 127 kts | 288° |
| 2026-05-06 17:05 | 59.80002 | 30.31010 | 168 ft | 127 kts | 288° |
| 2026-05-06 17:05 | 59.80252 | 30.29382 | 72 ft | 113 kts | 287° |
| 2026-05-06 17:05 | 59.80432 | 30.28205 | 68 ft | 65 kts | 286° |
| 2026-05-06 17:06 | 59.80406 | 30.27589 | 71 ft | 40 kts | 251° |
| 2026-05-06 17:06 | 59.80354 | 30.27182 | 73 ft | 25 kts | 280° |
| 2026-05-06 17:06 | 59.80401 | 30.26843 | 70 ft | 23 kts | 287° |
| 2026-05-06 17:06 | 59.80355 | 30.26729 | 73 ft | 10 kts | 196° |
| 2026-05-06 17:07 | 59.80272 | 30.26680 | 74 ft | 14 kts | 197° |
| 2026-05-06 17:07 | 59.80170 | 30.26621 | 75 ft | 16 kts | 196° |
| 2026-05-06 17:07 | 59.80058 | 30.26555 | 76 ft | 17 kts | 197° |
| 2026-05-06 17:07 | 59.79940 | 30.26486 | 78 ft | 18 kts | 197° |
| 2026-05-06 17:08 | 59.79814 | 30.26411 | 84 ft | 19 kts | 196° |
| 2026-05-06 17:08 | 59.79738 | 30.26364 | 82 ft | 12 kts | 207° |
| 2026-05-06 17:08 | 59.79726 | 30.26266 | 80 ft | 8 kts | 285° |
| 2026-05-06 17:08 | 59.79728 | 30.26258 | 85 ft | 0 kts | 285° |